createdAt,value
2023-04-20T00:02:17.693Z,7.30
2023-04-20T00:04:46.787Z,7.30
2023-04-20T00:07:16.779Z,7.30
2023-04-20T00:09:45.017Z,7.30
2023-04-20T00:12:14.478Z,7.30
2023-04-20T00:14:42.492Z,7.30
2023-04-20T00:17:10.749Z,7.50
2023-04-20T00:19:39.046Z,7.30
2023-04-20T00:22:07.160Z,7.30
2023-04-20T00:24:35.436Z,7.30
2023-04-20T00:27:03.569Z,7.40
2023-04-20T00:29:33.036Z,7.20
2023-04-20T00:32:01.149Z,7.40
2023-04-20T00:34:29.285Z,7.40
2023-04-20T00:37:08.232Z,7.40
2023-04-20T00:39:36.418Z,7.30
2023-04-20T00:42:07.740Z,7.30
2023-04-20T00:44:37.294Z,7.40
2023-04-20T00:47:05.434Z,7.40
2023-04-20T00:49:33.670Z,7.40
2023-04-20T00:52:02.207Z,7.40
2023-04-20T00:54:31.333Z,7.40
2023-04-20T00:57:00.689Z,7.50
2023-04-20T00:59:28.815Z,7.50
2023-04-20T01:01:59.399Z,7.50
2023-04-20T01:04:28.138Z,7.50
2023-04-20T01:06:57.121Z,7.70
2023-04-20T01:09:25.258Z,7.50
2023-04-20T01:11:53.373Z,7.50
2023-04-20T01:14:21.487Z,7.50
2023-04-20T01:16:49.761Z,7.50
2023-04-20T01:19:19.388Z,7.50
2023-04-20T01:21:47.947Z,7.70
2023-04-20T01:24:17.350Z,7.50
2023-04-20T01:26:45.471Z,7.50
2023-04-20T01:29:13.564Z,7.40
2023-04-20T01:31:41.717Z,7.30
2023-04-20T01:34:10.140Z,7.40
2023-04-20T01:36:38.274Z,7.20
2023-04-20T01:39:06.783Z,7.30
2023-04-20T01:41:36.395Z,7.40
2023-04-20T01:44:04.431Z,7.10
2023-04-20T01:46:32.576Z,7.00
2023-04-20T01:49:00.923Z,6.90
2023-04-20T01:51:29.427Z,6.80
2023-04-20T01:53:57.496Z,6.80
2023-04-20T01:56:25.976Z,6.70
2023-04-20T01:58:55.473Z,6.70
2023-04-20T02:01:23.700Z,6.70
2023-04-20T02:03:52.152Z,6.70
2023-04-20T02:06:20.640Z,6.50
2023-04-20T02:08:49.025Z,6.50
2023-04-20T02:11:17.219Z,6.40
2023-04-20T02:13:45.346Z,6.40
2023-04-20T02:16:14.952Z,6.40
2023-04-20T02:18:43.022Z,6.40
2023-04-20T02:21:11.115Z,6.50
2023-04-20T02:23:39.118Z,6.40
2023-04-20T02:26:07.251Z,6.40
2023-04-20T02:28:36.275Z,6.60
2023-04-20T02:31:04.484Z,6.40
2023-04-20T02:33:34.167Z,6.40
2023-04-20T02:36:02.608Z,6.30
2023-04-20T02:38:30.778Z,6.30
2023-04-20T02:40:58.883Z,6.30
2023-04-20T02:43:27.478Z,6.20
2023-04-20T02:45:55.606Z,6.20
2023-04-20T02:48:26.067Z,6.30
2023-04-20T02:50:58.114Z,6.30
2023-04-20T02:53:26.225Z,6.30
2023-04-20T02:55:54.482Z,6.30
2023-04-20T02:58:22.579Z,6.30
2023-04-20T03:00:50.680Z,6.20
2023-04-20T03:03:21.392Z,6.20
2023-04-20T03:05:49.556Z,6.10
2023-04-20T03:08:18.971Z,6.10
2023-04-20T03:10:47.144Z,6.10
2023-04-20T03:13:17.354Z,6.00
2023-04-20T03:15:45.537Z,6.00
2023-04-20T03:18:13.700Z,5.90
2023-04-20T03:20:42.010Z,5.80
2023-04-20T03:23:10.238Z,5.80
2023-04-20T03:25:39.697Z,5.80
2023-04-20T03:28:07.741Z,5.80
2023-04-20T03:30:35.789Z,5.90
2023-04-20T03:33:04.061Z,5.80
2023-04-20T03:35:32.194Z,6.00
2023-04-20T03:38:01.255Z,5.80
2023-04-20T03:40:29.734Z,5.80
2023-04-20T03:42:59.175Z,5.90
2023-04-20T03:45:27.235Z,5.90
2023-04-20T03:47:55.395Z,5.90
2023-04-20T03:50:23.613Z,5.90
2023-04-20T03:52:51.643Z,5.90
2023-04-20T03:55:19.910Z,5.90
2023-04-20T03:57:47.992Z,5.90
2023-04-20T04:00:18.167Z,5.90
2023-04-20T04:02:46.440Z,5.90
2023-04-20T04:05:14.555Z,5.90
2023-04-20T04:07:42.602Z,5.90
2023-04-20T04:10:11.758Z,5.90
2023-04-20T04:12:39.916Z,5.90
2023-04-20T04:15:09.406Z,5.90
2023-04-20T04:17:38.912Z,5.90
2023-04-20T04:20:11.456Z,5.90
2023-04-20T04:22:39.685Z,5.90
2023-04-20T04:25:08.751Z,5.90
2023-04-20T04:27:40.097Z,5.90
2023-04-20T04:30:12.112Z,5.90
2023-04-20T04:32:41.877Z,5.90
2023-04-20T04:35:11.342Z,6.10
2023-04-20T04:37:39.422Z,5.90
2023-04-20T04:40:09.177Z,5.90
2023-04-20T04:42:37.654Z,5.90
2023-04-20T04:45:07.436Z,5.70
2023-04-20T04:47:36.561Z,5.90
2023-04-20T04:50:07.246Z,5.90
2023-04-20T04:52:35.384Z,5.80
2023-04-20T04:55:08.054Z,5.80
2023-04-20T04:57:38.523Z,6.00
2023-04-20T05:00:09.683Z,6.00
2023-04-20T05:02:38.062Z,5.80
2023-04-20T05:05:10.050Z,5.80
2023-04-20T05:07:40.339Z,5.80
2023-04-20T05:10:09.758Z,5.90
2023-04-20T05:12:38.214Z,5.90
2023-04-20T05:15:07.173Z,5.90
2023-04-20T05:17:35.427Z,6.00
2023-04-20T05:20:06.332Z,6.00
2023-04-20T05:22:36.027Z,6.00
2023-04-20T05:25:04.209Z,5.90
2023-04-20T05:27:33.582Z,5.90
2023-04-20T05:30:13.136Z,5.90
2023-04-20T05:32:50.633Z,6.10
2023-04-20T05:35:20.021Z,6.10
2023-04-20T05:37:49.807Z,6.10
2023-04-20T05:40:17.897Z,6.20
2023-04-20T05:42:46.104Z,6.30
2023-04-20T05:45:14.284Z,6.30
2023-04-20T05:47:42.487Z,6.40
2023-04-20T05:50:11.729Z,6.50
2023-04-20T05:52:39.862Z,6.50
2023-04-20T05:55:33.528Z,6.50
2023-04-20T05:58:01.767Z,6.60
2023-04-20T06:00:29.887Z,6.80
2023-04-20T06:02:58.107Z,6.80
2023-04-20T06:05:26.337Z,6.80
2023-04-20T06:07:54.378Z,6.90
2023-04-20T06:10:22.458Z,7.00
2023-04-20T06:12:51.871Z,7.00
2023-04-20T06:15:20.090Z,7.10
2023-04-20T06:17:48.176Z,7.20
2023-04-20T06:20:16.799Z,7.30
2023-04-20T06:22:45.554Z,7.40
2023-04-20T06:25:13.969Z,7.40
2023-04-20T06:27:42.112Z,7.40
2023-04-20T06:30:12.705Z,7.40
2023-04-20T06:32:40.780Z,7.40
2023-04-20T06:35:09.683Z,7.50
2023-04-20T06:37:37.986Z,7.50
2023-04-20T06:40:08.212Z,7.50
2023-04-20T06:42:37.377Z,7.50
2023-04-20T06:45:06.521Z,7.40
2023-04-20T06:47:36.930Z,7.40
2023-04-20T06:50:09.666Z,7.40
2023-04-20T06:52:38.422Z,7.30
2023-04-20T06:55:07.204Z,7.30
2023-04-20T06:57:35.439Z,7.30
2023-04-20T07:00:04.139Z,7.30
2023-04-20T07:02:32.484Z,7.20
2023-04-20T07:05:03.416Z,7.30
2023-04-20T07:07:31.667Z,7.30
2023-04-20T07:09:59.883Z,7.20
2023-04-20T07:12:27.903Z,7.20
2023-04-20T07:14:56.087Z,7.20
2023-04-20T07:17:24.328Z,7.20
2023-04-20T07:19:52.686Z,7.10
2023-04-20T07:22:22.332Z,7.00
2023-04-20T07:24:50.597Z,7.10
2023-04-20T07:27:18.846Z,7.00
2023-04-20T07:29:47.122Z,7.00
2023-04-20T07:32:15.499Z,6.90
2023-04-20T07:34:43.766Z,6.90
2023-04-20T07:37:12.655Z,6.90
2023-04-20T07:39:42.125Z,6.90
2023-04-20T07:42:10.425Z,7.00
2023-04-20T07:44:38.796Z,7.20
2023-04-20T07:47:07.206Z,7.30
2023-04-20T07:49:38.352Z,7.50
2023-04-20T07:52:15.719Z,7.60
2023-04-20T07:54:46.685Z,7.80
2023-04-20T07:57:15.318Z,8.00
2023-04-20T07:59:43.558Z,8.30
2023-04-20T08:02:11.746Z,8.50
2023-04-20T08:04:40.089Z,8.80
2023-04-20T08:07:09.164Z,8.80
2023-04-20T08:09:37.561Z,8.70
2023-04-20T08:12:07.576Z,8.80
2023-04-20T08:14:35.740Z,8.90
2023-04-20T08:17:03.771Z,8.90
2023-04-20T08:19:31.946Z,8.90
2023-04-20T08:22:01.441Z,8.90
2023-04-20T08:24:30.573Z,8.60
2023-04-20T08:26:59.419Z,8.80
2023-04-20T08:29:29.093Z,8.70
2023-04-20T08:31:57.369Z,8.80
2023-04-20T08:34:25.657Z,8.90
2023-04-20T08:36:53.894Z,9.10
2023-04-20T08:39:24.413Z,9.30
2023-04-20T08:41:55.525Z,9.50
2023-04-20T08:44:23.884Z,9.60
2023-04-20T08:46:54.221Z,9.60
2023-04-20T08:49:22.375Z,9.70
2023-04-20T08:51:51.491Z,9.70
2023-04-20T08:54:19.769Z,9.60
2023-04-20T08:56:49.110Z,9.50
2023-04-20T08:59:17.834Z,9.60
2023-04-20T09:01:46.488Z,9.60
2023-04-20T09:04:20.756Z,9.70
2023-04-20T09:06:51.273Z,9.80
2023-04-20T09:09:20.143Z,9.70
2023-04-20T09:11:48.839Z,9.60
2023-04-20T09:14:18.471Z,9.50
2023-04-20T09:16:57.038Z,9.50
2023-04-20T09:19:27.421Z,9.50
2023-04-20T09:21:56.684Z,9.50
2023-04-20T09:24:31.611Z,9.60
2023-04-20T09:26:59.923Z,9.70
2023-04-20T09:29:28.062Z,9.80
2023-04-20T09:31:56.417Z,10.10
2023-04-20T09:34:26.737Z,10.10
2023-04-20T09:36:55.986Z,10.30
2023-04-20T09:39:25.298Z,10.50
2023-04-20T09:41:54.085Z,10.70
2023-04-20T09:44:23.406Z,10.60
2023-04-20T09:46:51.511Z,10.70
2023-04-20T09:49:21.387Z,10.80
2023-04-20T09:51:51.501Z,10.70
2023-04-20T09:54:20.757Z,10.50
2023-04-20T09:56:50.886Z,10.20
2023-04-20T09:59:22.346Z,10.10
2023-04-20T10:01:50.940Z,10.10
2023-04-20T10:04:19.868Z,10.10
2023-04-20T10:06:57.889Z,10.10
2023-04-20T10:09:27.301Z,10.10
2023-04-20T10:12:07.303Z,9.90
2023-04-20T10:14:36.255Z,9.80
2023-04-20T10:17:06.575Z,9.80
2023-04-20T10:19:39.902Z,9.70
2023-04-20T10:22:10.541Z,9.70
2023-04-20T10:24:39.240Z,9.80
2023-04-20T10:27:18.028Z,9.70
2023-04-20T10:29:46.266Z,10.90
2023-04-20T10:32:24.300Z,11.50
2023-04-20T10:35:03.680Z,11.90
2023-04-20T10:37:33.569Z,11.90
2023-04-20T10:40:01.956Z,11.70
2023-04-20T10:42:30.688Z,11.40
2023-04-20T10:44:58.881Z,11.50
2023-04-20T10:47:31.529Z,11.50
2023-04-20T10:50:09.317Z,11.90
2023-04-20T10:52:39.993Z,11.80
2023-04-20T10:55:19.379Z,11.80
2023-04-20T10:57:47.561Z,12.30
2023-04-20T11:00:17.836Z,13.90
2023-04-20T11:02:50.887Z,15.90
2023-04-20T11:05:20.322Z,17.70
2023-04-20T11:07:53.417Z,18.70
2023-04-20T11:10:22.328Z,19.80
2023-04-20T11:12:51.123Z,19.00
2023-04-20T11:15:19.672Z,18.70
2023-04-20T11:17:47.980Z,18.10
2023-04-20T11:20:18.647Z,17.70
2023-04-20T11:22:59.875Z,16.90
2023-04-20T11:25:28.259Z,16.20
2023-04-20T11:28:08.509Z,15.40
2023-04-20T11:30:41.261Z,14.50
2023-04-20T11:33:10.461Z,14.20
2023-04-20T11:35:40.057Z,13.60
2023-04-20T11:38:10.258Z,13.70
2023-04-20T11:40:39.452Z,13.10
2023-04-20T11:43:07.528Z,12.80
2023-04-20T11:45:36.737Z,12.30
2023-04-20T11:48:06.442Z,12.10
2023-04-20T11:50:34.666Z,11.80
2023-04-20T11:53:03.469Z,11.60
2023-04-20T11:55:33.151Z,11.40
2023-04-20T11:58:01.265Z,11.20
2023-04-20T12:00:29.996Z,11.20
2023-04-20T12:03:00.047Z,11.30
2023-04-20T12:05:28.597Z,11.60
2023-04-20T12:07:56.770Z,11.90
2023-04-20T12:10:24.959Z,12.00
2023-04-20T12:12:54.929Z,12.20
2023-04-20T12:15:23.190Z,12.70
2023-04-20T12:17:51.292Z,12.70
2023-04-20T12:20:19.440Z,13.00
2023-04-20T12:22:47.579Z,13.00
2023-04-20T12:25:15.671Z,13.00
2023-04-20T12:27:43.816Z,12.90
2023-04-20T12:30:14.656Z,12.90
2023-04-20T12:32:42.809Z,13.20
2023-04-20T12:35:11.173Z,13.70
2023-04-20T12:37:39.275Z,13.70
2023-04-20T12:40:08.782Z,13.90
2023-04-20T12:42:36.881Z,14.10
2023-04-20T12:45:05.393Z,14.00
2023-04-20T12:47:35.079Z,13.60
2023-04-20T12:50:03.333Z,13.10
2023-04-20T12:52:31.574Z,12.70
2023-04-20T12:54:59.781Z,12.70
2023-04-20T12:57:28.208Z,12.70
2023-04-20T12:59:56.732Z,12.80
2023-04-20T13:02:24.938Z,12.90
2023-04-20T13:04:54.947Z,13.40
2023-04-20T13:07:23.077Z,13.50
2023-04-20T13:09:51.137Z,13.40
2023-04-20T13:12:19.186Z,13.70
2023-04-20T13:14:47.275Z,13.70
2023-04-20T13:17:15.401Z,14.00
2023-04-20T13:19:43.566Z,13.90
2023-04-20T13:22:15.785Z,13.20
2023-04-20T13:24:46.420Z,12.90
2023-04-20T13:27:14.615Z,12.80
2023-04-20T13:29:42.780Z,12.40
2023-04-20T13:32:11.798Z,12.30
2023-04-20T13:34:39.965Z,12.20
2023-04-20T13:37:08.271Z,12.20
2023-04-20T13:39:38.449Z,12.30
2023-04-20T13:42:07.084Z,12.60
2023-04-20T13:44:35.576Z,13.30
2023-04-20T13:47:03.876Z,14.00
2023-04-20T13:49:32.033Z,13.90
2023-04-20T13:52:00.172Z,13.90
2023-04-20T13:54:28.446Z,13.70
2023-04-20T13:56:58.066Z,13.50
2023-04-20T13:59:26.248Z,13.50
2023-04-20T14:01:54.320Z,13.40
2023-04-20T14:04:22.632Z,13.20
2023-04-20T14:06:52.230Z,12.90
2023-04-20T14:09:20.616Z,13.20
2023-04-20T14:11:51.996Z,13.20
2023-04-20T14:14:23.759Z,13.80
2023-04-20T14:16:52.071Z,14.40
2023-04-20T14:19:20.318Z,14.50
2023-04-20T14:21:48.547Z,14.30
2023-04-20T14:24:16.769Z,13.90
2023-04-20T14:26:45.192Z,13.80
2023-04-20T14:29:13.740Z,13.50
2023-04-20T14:31:43.263Z,13.20
2023-04-20T14:34:13.183Z,12.90
2023-04-20T14:36:41.608Z,12.70
2023-04-20T14:39:10.028Z,12.60
2023-04-20T14:41:38.193Z,12.30
2023-04-20T14:44:06.792Z,12.30
2023-04-20T14:46:35.090Z,12.00
2023-04-20T14:49:04.832Z,11.70
2023-04-20T14:51:33.609Z,11.60
2023-04-20T14:54:01.864Z,11.50
2023-04-20T14:56:29.995Z,11.40
2023-04-20T14:58:59.623Z,11.40
2023-04-20T15:01:29.280Z,11.40
2023-04-20T15:03:57.818Z,11.40
2023-04-20T15:06:27.467Z,11.40
2023-04-20T15:08:56.498Z,11.40
2023-04-20T15:11:24.829Z,11.30
2023-04-20T15:13:54.259Z,11.20
2023-04-20T15:16:22.772Z,11.20
2023-04-20T15:18:53.137Z,10.90
2023-04-20T15:21:23.008Z,10.90
2023-04-20T15:23:52.629Z,10.80
2023-04-20T15:26:20.954Z,10.80
2023-04-20T15:28:49.927Z,10.80
2023-04-20T15:31:19.625Z,10.70
2023-04-20T15:33:48.138Z,10.70
2023-04-20T15:36:18.574Z,10.70
2023-04-20T15:38:46.835Z,10.70
2023-04-20T15:41:16.575Z,10.70
2023-04-20T15:43:44.785Z,10.60
2023-04-20T15:46:13.263Z,10.60
2023-04-20T15:48:41.796Z,10.50
2023-04-20T15:51:10.063Z,10.40
2023-04-20T15:53:38.751Z,10.40
2023-04-20T15:56:07.443Z,10.30
2023-04-20T15:58:37.320Z,10.30
2023-04-20T16:01:05.660Z,10.20
2023-04-20T16:03:34.115Z,10.10
2023-04-20T16:06:02.398Z,10.10
2023-04-20T16:08:30.769Z,10.00
2023-04-20T16:10:59.077Z,10.00
2023-04-20T16:13:27.359Z,10.00
2023-04-20T16:16:03.251Z,10.00
2023-04-20T16:18:32.280Z,10.00
2023-04-20T16:21:00.671Z,10.00
2023-04-20T16:23:29.993Z,9.90
2023-04-20T16:25:58.244Z,9.90
2023-04-20T16:28:27.665Z,9.90
2023-04-20T16:30:57.298Z,9.90
2023-04-20T16:33:25.984Z,9.80
2023-04-20T16:35:54.215Z,9.90
2023-04-20T16:38:22.758Z,10.00
2023-04-20T16:40:51.025Z,9.90
2023-04-20T16:43:19.332Z,9.90
2023-04-20T16:45:47.467Z,9.90
2023-04-20T16:48:17.009Z,9.80
2023-04-20T16:50:45.728Z,9.80
2023-04-20T16:53:13.877Z,9.80
2023-04-20T16:55:42.014Z,9.70
2023-04-20T16:58:10.235Z,9.70
2023-04-20T17:00:38.749Z,9.70
2023-04-20T17:03:10.507Z,9.70
2023-04-20T17:05:42.180Z,9.60
2023-04-20T17:08:10.757Z,9.80
2023-04-20T17:10:39.411Z,9.60
2023-04-20T17:13:07.646Z,9.50
2023-04-20T17:15:35.805Z,9.50
2023-04-20T17:18:04.620Z,9.50
2023-04-20T17:20:33.095Z,9.50
2023-04-20T17:23:02.917Z,9.50
2023-04-20T17:25:31.161Z,9.40
2023-04-20T17:27:59.601Z,9.40
2023-04-20T17:30:28.486Z,9.40
2023-04-20T17:32:57.352Z,9.40
2023-04-20T17:35:25.856Z,9.30
2023-04-20T17:37:54.095Z,9.30
2023-04-20T17:40:23.598Z,9.30
2023-04-20T17:42:51.720Z,9.30
2023-04-20T17:45:20.027Z,9.30
2023-04-20T17:47:48.222Z,9.30
2023-04-20T17:50:17.559Z,9.30
2023-04-20T17:52:45.767Z,9.30
2023-04-20T17:55:14.015Z,9.30
2023-04-20T17:57:43.484Z,9.30
2023-04-20T18:00:12.745Z,9.30
2023-04-20T18:02:41.124Z,9.30
2023-04-20T18:05:10.018Z,9.20
2023-04-20T18:07:38.269Z,9.20
2023-04-20T18:10:07.284Z,9.20
2023-04-20T18:12:35.583Z,9.10
2023-04-20T18:15:07.623Z,9.10
2023-04-20T18:17:36.614Z,9.10
2023-04-20T18:20:06.909Z,9.10
2023-04-20T18:22:35.053Z,9.10
2023-04-20T18:25:03.203Z,9.10
2023-04-20T18:27:31.342Z,9.10
2023-04-20T18:30:00.590Z,9.00
2023-04-20T18:32:31.011Z,9.00
2023-04-20T18:35:00.377Z,9.00
2023-04-20T18:37:28.635Z,8.90
2023-04-20T18:39:57.203Z,8.90
2023-04-20T18:42:25.448Z,8.90
2023-04-20T18:44:55.908Z,8.90
2023-04-20T18:47:26.446Z,8.90
2023-04-20T18:49:56.156Z,8.90
2023-04-20T18:52:24.454Z,8.90
2023-04-20T18:54:55.345Z,8.90
2023-04-20T18:57:26.285Z,9.00
2023-04-20T18:59:55.376Z,8.80
2023-04-20T19:02:23.911Z,8.80
2023-04-20T19:04:52.318Z,8.80
2023-04-20T19:07:21.789Z,8.90
2023-04-20T19:09:49.966Z,8.70
2023-04-20T19:12:18.254Z,8.60
2023-04-20T19:14:48.981Z,8.60
2023-04-20T19:17:17.586Z,8.60
2023-04-20T19:19:46.049Z,8.60
2023-04-20T19:22:14.239Z,8.70
2023-04-20T19:24:43.621Z,8.70
2023-04-20T19:27:11.750Z,8.70
2023-04-20T19:29:39.837Z,8.60
2023-04-20T19:32:08.278Z,8.50
2023-04-20T19:34:36.446Z,8.40
2023-04-20T19:37:04.668Z,8.30
2023-04-20T19:39:34.732Z,8.30
2023-04-20T19:42:04.487Z,8.30
2023-04-20T19:44:32.689Z,8.30
2023-04-20T19:47:00.782Z,8.30
2023-04-20T19:49:28.973Z,8.40
2023-04-20T19:51:57.117Z,8.30
2023-04-20T19:54:25.239Z,8.30
2023-04-20T19:56:53.281Z,8.40
2023-04-20T19:59:22.750Z,8.40
2023-04-20T20:01:51.039Z,8.40
2023-04-20T20:04:20.558Z,8.50
2023-04-20T20:06:50.713Z,8.50
2023-04-20T20:09:21.563Z,8.50
2023-04-20T20:11:51.424Z,8.50
2023-04-20T20:14:19.905Z,8.50
2023-04-20T20:16:49.775Z,8.50
2023-04-20T20:19:18.435Z,8.50
2023-04-20T20:21:46.698Z,8.50
2023-04-20T20:24:14.832Z,8.40
2023-04-20T20:26:42.977Z,8.40
2023-04-20T20:29:11.210Z,8.40
2023-04-20T20:31:39.413Z,8.40
2023-04-20T20:34:09.322Z,8.40
2023-04-20T20:36:37.721Z,8.50
2023-04-20T20:39:06.712Z,8.50
2023-04-20T20:41:35.030Z,8.50
2023-04-20T20:44:03.814Z,8.50
2023-04-20T20:46:32.643Z,8.50
2023-04-20T20:49:01.414Z,8.50
2023-04-20T20:51:31.484Z,8.50
2023-04-20T20:53:59.843Z,8.50
2023-04-20T20:56:28.013Z,8.50
2023-04-20T20:58:56.391Z,8.50
2023-04-20T21:01:24.652Z,8.50
2023-04-20T21:03:53.062Z,8.60
2023-04-20T21:06:21.335Z,8.60
2023-04-20T21:08:50.858Z,8.60
2023-04-20T21:11:19.040Z,8.70
2023-04-20T21:13:47.544Z,8.70
2023-04-20T21:16:15.710Z,8.70
2023-04-20T21:18:43.953Z,8.70
2023-04-20T21:21:13.383Z,8.70
2023-04-20T21:23:41.549Z,8.80
2023-04-20T21:26:11.160Z,8.70
2023-04-20T21:28:39.282Z,8.70
2023-04-20T21:31:07.376Z,8.70
2023-04-20T21:33:35.826Z,8.70
2023-04-20T21:36:04.150Z,8.70
2023-04-20T21:38:32.231Z,8.70
2023-04-20T21:41:00.285Z,8.70
2023-04-20T21:43:29.743Z,8.70
2023-04-20T21:45:57.892Z,8.70
2023-04-20T21:48:25.987Z,8.70
2023-04-20T21:50:54.062Z,8.70
2023-04-20T21:53:22.335Z,8.70
2023-04-20T21:55:50.457Z,8.70
2023-04-20T21:58:18.497Z,8.60
2023-04-20T22:00:48.163Z,8.60
2023-04-20T22:03:16.367Z,8.60
2023-04-20T22:05:44.486Z,8.60
2023-04-20T22:08:14.532Z,8.60
2023-04-20T22:10:42.825Z,8.50
2023-04-20T22:13:10.922Z,8.40
2023-04-20T22:15:38.974Z,8.40
2023-04-20T22:18:09.890Z,8.30
2023-04-20T22:20:38.346Z,8.10
2023-04-20T22:23:06.570Z,8.30
2023-04-20T22:25:34.615Z,8.30
2023-04-20T22:28:02.667Z,8.20
2023-04-20T22:30:30.621Z,8.30
2023-04-20T22:32:58.724Z,8.30
2023-04-20T22:35:28.412Z,8.30
2023-04-20T22:37:56.600Z,8.30
2023-04-20T22:40:25.001Z,8.40
2023-04-20T22:42:53.121Z,8.40
2023-04-20T22:45:22.014Z,8.40
2023-04-20T22:47:50.126Z,8.40
2023-04-20T22:50:18.601Z,8.50
2023-04-20T22:52:49.408Z,8.50
2023-04-20T22:55:17.461Z,8.50
2023-04-20T22:57:45.480Z,8.50
2023-04-20T23:00:14.536Z,8.60
2023-04-20T23:02:42.938Z,8.50
2023-04-20T23:05:11.556Z,8.60
2023-04-20T23:07:40.177Z,8.60
2023-04-20T23:10:11.759Z,8.60
2023-04-20T23:12:39.885Z,8.60
2023-04-20T23:15:09.051Z,8.60
2023-04-20T23:17:37.207Z,8.60
2023-04-20T23:20:07.319Z,8.50
2023-04-20T23:22:35.896Z,8.70
2023-04-20T23:25:03.927Z,8.70
2023-04-20T23:27:33.363Z,8.70
2023-04-20T23:30:01.406Z,8.70
2023-04-20T23:32:29.545Z,8.70
2023-04-20T23:34:57.650Z,8.70
2023-04-20T23:37:25.748Z,8.60
2023-04-20T23:39:58.648Z,8.60
2023-04-20T23:42:26.692Z,8.60
2023-04-20T23:44:56.047Z,8.50
2023-04-20T23:47:24.134Z,8.50
2023-04-20T23:49:52.232Z,8.40
2023-04-20T23:52:20.202Z,8.40
2023-04-20T23:54:48.207Z,8.40
2023-04-20T23:57:16.301Z,8.50
2023-04-20T23:59:44.337Z,8.60
